Time;durP1;ratioP1;P1;durP2;ratioP2;P2;SDS_P1;SDS_P2;PMS_P1;PMS_P2;Temp;Humidity;BMP_temperature;BMP_pressure;BME280_temperature;BME280_humidity;BME280_pressure;Samples;Min_cycle;Max_cycle;Signal;HPM_P1;HPM_P2
2022/11/07 00:01:22;;;;;;;8.48;3.38;;;;;;;9.75;100.00;100667.59;5088964;28;20020;-67
2022/11/07 00:03:47;;;;;;;7.97;3.63;;;;;;;9.79;100.00;100674.97;5089690;28;20471;-67
2022/11/07 00:06:13;;;;;;;8.18;4.15;;;;;;;9.83;100.00;100672.75;5089470;28;20043;-67
2022/11/07 00:08:38;;;;;;;7.35;3.78;;;;;;;9.86;100.00;100672.38;5089529;28;20471;-67
2022/11/07 00:11:05;;;;;;;6.00;3.45;;;;;;;9.90;100.00;100675.44;5089431;28;20106;-67
2022/11/07 00:13:31;;;;;;;10.65;4.78;;;;;;;9.94;100.00;100677.53;5089692;28;20592;-67
2022/11/07 00:16:02;;;;;;;3.92;2.78;;;;;;;10.00;100.00;100676.72;5089090;28;20050;-67
2022/11/07 00:18:27;;;;;;;7.30;3.15;;;;;;;10.03;100.00;100673.69;5088995;28;20040;-67
2022/11/07 00:20:53;;;;;;;6.38;3.13;;;;;;;10.08;100.00;100673.09;5089250;28;20524;-67
2022/11/07 00:23:18;;;;;;;9.20;3.35;;;;;;;10.06;100.00;100685.78;5071177;28;20437;-66
2022/11/07 00:25:43;;;;;;;6.43;4.32;;;;;;;9.97;100.00;100660.34;5089432;28;20363;-67
2022/11/07 00:28:09;;;;;;;5.43;4.00;;;;;;;10.01;100.00;100677.59;5089496;28;20387;-67
2022/11/07 00:30:34;;;;;;;8.43;3.30;;;;;;;9.93;100.00;100672.38;5089388;28;20115;-67
2022/11/07 00:32:59;;;;;;;7.13;3.33;;;;;;;9.92;100.00;100692.88;5089472;28;20028;-67
2022/11/07 00:35:25;;;;;;;11.48;3.85;;;;;;;9.86;100.00;100686.50;5089314;28;20035;-67
2022/11/07 00:37:53;;;;;;;4.55;3.10;;;;;;;9.81;100.00;100682.78;5089455;28;20024;-67
2022/11/07 00:40:18;;;;;;;6.80;3.60;;;;;;;9.80;100.00;100687.28;5089294;28;20494;-67
2022/11/07 00:42:43;;;;;;;6.10;3.38;;;;;;;9.78;100.00;100689.31;5091950;28;20040;-67
2022/11/07 00:45:10;;;;;;;9.38;3.10;;;;;;;9.75;100.00;100694.22;5093163;28;20043;-67
2022/11/07 00:47:36;;;;;;;7.63;3.38;;;;;;;9.70;100.00;100694.00;5092959;28;20048;-67
2022/11/07 00:50:01;;;;;;;6.85;3.17;;;;;;;9.69;100.00;100687.81;5093078;28;20119;-67
2022/11/07 00:52:26;;;;;;;8.65;4.30;;;;;;;9.66;100.00;100686.38;5092923;28;20074;-67
2022/11/07 00:54:52;;;;;;;6.60;3.30;;;;;;;9.61;100.00;100679.97;5074714;28;20152;-67
2022/11/07 00:57:17;;;;;;;5.57;3.38;;;;;;;9.63;100.00;100693.94;5093068;28;20109;-66
2022/11/07 00:59:42;;;;;;;5.53;3.20;;;;;;;9.59;100.00;100693.50;5092822;28;20077;-67
2022/11/07 01:02:08;;;;;;;8.65;3.75;;;;;;;9.51;100.00;100684.81;5092431;28;20133;-67
2022/11/07 01:07:17;;;;;;;7.45;4.10;;;;;;;9.56;100.00;100695.72;5092741;28;20046;-67
2022/11/07 01:09:42;;;;;;;8.07;3.30;;;;;;;9.55;100.00;100696.75;5092713;28;20115;-67
2022/11/07 01:12:08;;;;;;;6.55;3.20;;;;;;;9.55;100.00;100689.56;5092533;28;20081;-66
2022/11/07 01:14:33;;;;;;;5.78;3.50;;;;;;;9.50;100.00;100693.84;5092621;28;20031;-71
2022/11/07 01:16:58;;;;;;;8.80;3.65;;;;;;;9.50;100.00;100694.66;5092710;28;20024;-71
2022/11/07 01:19:24;;;;;;;9.38;3.65;;;;;;;9.56;100.00;100709.88;5092476;28;20035;-71
2022/11/07 01:21:49;;;;;;;12.85;3.10;;;;;;;9.57;100.00;100706.19;5091707;28;20459;-71
2022/11/07 01:24:15;;;;;;;11.82;3.55;;;;;;;9.58;100.00;100709.66;5092397;28;20111;-71
2022/11/07 01:26:42;;;;;;;11.40;4.53;;;;;;;9.51;100.00;100708.78;5092306;28;20509;-71
2022/11/07 01:29:08;;;;;;;8.13;3.10;;;;;;;9.58;100.00;100715.00;5092523;28;20530;-71
2022/11/07 01:31:33;;;;;;;9.98;3.53;;;;;;;9.58;100.00;100718.47;5092353;28;20032;-71
2022/11/07 01:34:00;;;;;;;9.07;3.42;;;;;;;9.58;100.00;100729.13;5092091;28;20028;-71
2022/11/07 01:36:26;;;;;;;6.95;3.10;;;;;;;9.59;100.00;100728.13;5091986;28;20031;-72
2022/11/07 01:38:51;;;;;;;6.90;2.92;;;;;;;9.60;100.00;100726.28;5092194;28;20152;-71
2022/11/07 01:41:24;;;;;;;5.95;3.47;;;;;;;9.58;100.00;100723.78;5091788;28;20139;-72
2022/11/07 01:44:21;;;;;;;11.75;4.22;;;;;;;9.58;100.00;100729.13;5092186;28;20032;-71
2022/11/07 01:46:47;;;;;;;15.40;4.00;;;;;;;9.60;100.00;100720.94;5091895;28;20426;-72
2022/11/07 01:49:24;;;;;;;11.07;3.90;;;;;;;9.54;100.00;100717.22;5091972;28;20440;-73
2022/11/07 01:52:08;;;;;;;7.53;3.75;;;;;;;9.59;100.00;100725.47;5091750;28;20490;-72
2022/11/07 01:54:40;;;;;;;7.45;3.88;;;;;;;9.60;100.00;100724.44;5091319;28;20069;-72
2022/11/07 01:57:11;;;;;;;15.65;3.35;;;;;;;9.58;100.00;100709.66;5091818;28;20070;-72
2022/11/07 01:59:38;;;;;;;10.10;4.50;;;;;;;9.61;100.00;100714.59;5091685;28;20443;-72
2022/11/07 02:02:04;;;;;;;10.43;3.88;;;;;;;9.59;100.00;100711.31;5091638;28;20115;-72
2022/11/07 02:04:30;;;;;;;10.13;3.65;;;;;;;9.58;100.00;100709.66;5091225;28;20138;-72
2022/11/07 02:07:03;;;;;;;5.10;3.13;;;;;;;9.60;100.00;100708.44;5091476;28;20112;-72
2022/11/07 02:09:29;;;;;;;12.70;3.40;;;;;;;9.66;100.00;100720.97;5091496;28;20028;-71
2022/11/07 02:11:59;;;;;;;7.28;3.10;;;;;;;9.70;100.00;100724.09;5091598;28;20032;-71
2022/11/07 02:14:25;;;;;;;8.77;3.20;;;;;;;9.69;100.00;100726.94;5091426;28;20034;-71
2022/11/07 02:16:51;;;;;;;10.88;3.88;;;;;;;9.82;100.00;100737.69;5091386;28;20475;-72
2022/11/07 02:19:36;;;;;;;8.40;3.58;;;;;;;9.86;100.00;100730.97;5091364;28;20085;-71
2022/11/07 02:22:12;;;;;;;11.75;3.60;;;;;;;9.87;100.00;100727.28;5090706;28;20932;-72
2022/11/07 02:24:38;;;;;;;7.45;3.95;;;;;;;9.86;100.00;100731.78;5090929;28;20111;-71
2022/11/07 02:27:09;;;;;;;6.93;3.80;;;;;;;9.87;100.00;100737.94;5091108;28;20024;-72
2022/11/07 02:29:37;;;;;;;8.38;4.10;;;;;;;9.89;100.00;100733.25;5110620;28;20041;-71
2022/11/07 02:32:06;;;;;;;9.45;4.03;;;;;;;9.90;100.00;100732.22;5110549;28;20031;-71
2022/11/07 02:34:32;;;;;;;13.43;3.58;;;;;;;9.90;100.00;100736.72;5110641;28;20061;-71
2022/11/07 02:37:00;;;;;;;8.90;3.42;;;;;;;9.83;100.00;100731.38;5110317;28;20039;-72
2022/11/07 02:39:25;;;;;;;8.23;3.92;;;;;;;9.85;100.00;100738.16;5110407;28;20027;-71
2022/11/07 02:41:53;;;;;;;9.80;3.20;;;;;;;9.84;100.00;100744.47;5110252;28;20038;-71
2022/11/07 02:44:19;;;;;;;9.75;3.25;;;;;;;9.84;100.00;100741.81;5110313;28;20031;-71
2022/11/07 02:46:45;;;;;;;13.00;3.20;;;;;;;9.89;100.00;100743.91;5110057;28;20490;-71
2022/11/07 02:49:10;;;;;;;10.00;4.15;;;;;;;9.90;100.00;100734.88;5110319;28;20130;-72
2022/11/07 02:51:36;;;;;;;5.95;3.10;;;;;;;9.89;100.00;100730.56;5096511;28;20040;-71
2022/11/07 02:54:01;;;;;;;6.55;4.07;;;;;;;9.86;100.00;100734.44;5090655;28;20115;-71
2022/11/07 02:56:26;;;;;;;7.95;3.42;;;;;;;9.85;100.00;100729.31;5090602;28;20506;-71
2022/11/07 02:58:52;;;;;;;12.68;4.10;;;;;;;9.91;100.00;100725.06;5072459;28;20122;-71
2022/11/07 03:01:18;;;;;;;10.85;3.17;;;;;;;9.92;100.00;100727.50;5090496;28;20078;-71
2022/11/07 03:03:45;;;;;;;6.43;2.60;;;;;;;9.93;100.00;100721.19;5090378;28;20609;-71
2022/11/07 03:06:14;;;;;;;11.23;3.80;;;;;;;9.95;100.00;100724.47;5089480;28;20059;-72
2022/11/07 03:08:39;;;;;;;13.85;3.28;;;;;;;9.92;100.00;100714.19;5090484;28;20026;-71
2022/11/07 03:11:05;;;;;;;9.45;4.13;;;;;;;9.91;100.00;100707.25;5072020;28;20114;-71
2022/11/07 03:13:31;;;;;;;10.02;5.10;;;;;;;9.92;100.00;100718.72;5090432;28;20024;-71
2022/11/07 03:15:56;;;;;;;8.68;3.13;;;;;;;9.92;100.00;100721.38;5090369;28;20038;-71
2022/11/07 03:18:22;;;;;;;9.25;3.15;;;;;;;9.92;100.00;100726.69;5090349;28;20403;-71
2022/11/07 03:20:47;;;;;;;6.18;2.80;;;;;;;9.90;100.00;100723.41;5090209;28;20403;-71
2022/11/07 03:23:13;;;;;;;11.40;4.18;;;;;;;9.87;100.00;100722.75;5090042;28;20039;-71
2022/11/07 03:25:38;;;;;;;12.38;3.25;;;;;;;9.85;100.00;100723.97;5089129;28;20485;-71
2022/11/07 03:28:04;;;;;;;9.57;4.22;;;;;;;9.83;100.00;100726.03;5090135;28;20371;-71
2022/11/07 03:30:29;;;;;;;5.40;2.42;;;;;;;9.83;100.00;100728.69;5090263;28;20020;-71
2022/11/07 03:32:55;;;;;;;5.28;2.72;;;;;;;9.80;100.00;100727.25;5090019;28;20486;-71
2022/11/07 03:35:21;;;;;;;13.55;3.65;;;;;;;9.79;100.00;100727.44;5090182;28;20028;-71
2022/11/07 03:37:48;;;;;;;10.18;2.85;;;;;;;9.80;100.00;100729.09;5090040;28;20028;-71
2022/11/07 03:40:14;;;;;;;12.32;3.65;;;;;;;9.76;100.00;100727.81;5089884;28;20016;-71
2022/11/07 03:42:41;;;;;;;8.38;3.95;;;;;;;9.77;100.00;100726.78;5089929;28;20081;-71
2022/11/07 03:45:10;;;;;;;14.18;4.25;;;;;;;9.80;100.00;100734.44;5089924;28;20064;-71
2022/11/07 03:47:37;;;;;;;10.13;3.53;;;;;;;9.78;100.00;100736.44;5109110;28;20056;-71
2022/11/07 03:50:03;;;;;;;13.50;3.58;;;;;;;9.80;100.00;100747.75;5109336;28;20042;-71
2022/11/07 03:52:29;;;;;;;10.98;2.97;;;;;;;9.78;100.00;100739.13;5109573;28;20047;-71
2022/11/07 03:54:54;;;;;;;6.95;2.92;;;;;;;9.87;100.00;100743.25;5109300;28;20024;-72
2022/11/07 03:57:20;;;;;;;9.63;3.97;;;;;;;9.86;100.00;100744.28;5109336;28;20406;-71
2022/11/07 03:59:45;;;;;;;15.43;4.82;;;;;;;9.95;100.00;100747.63;5109231;28;20385;-71
2022/11/07 04:02:10;;;;;;;5.55;2.83;;;;;;;9.98;100.00;100747.22;5109173;28;20067;-71
2022/11/07 04:04:36;;;;;;;9.88;3.40;;;;;;;10.01;100.00;100741.53;5109102;28;20058;-71
2022/11/07 04:07:01;;;;;;;17.17;3.90;;;;;;;10.03;100.00;100742.13;5109152;28;20031;-71
2022/11/07 04:09:26;;;;;;;10.18;3.03;;;;;;;10.03;100.00;100734.97;5109093;28;20032;-72
2022/11/07 04:17:19;;;;;;;10.07;3.05;;;;;;;10.13;100.00;100734.59;5111525;28;20111;-71
2022/11/07 04:19:50;;;;;;;9.65;2.88;;;;;;;10.16;100.00;100730.72;5113123;28;20027;-71
2022/11/07 04:22:16;;;;;;;9.40;3.58;;;;;;;10.18;100.00;100726.84;5113109;28;20042;-71
2022/11/07 04:24:42;;;;;;;8.55;3.72;;;;;;;10.21;100.00;100738.97;5113135;28;20053;-71
2022/11/07 04:29:56;;;;;;;14.10;3.75;;;;;;;10.15;100.00;100732.56;5113391;28;20042;-72
2022/11/07 04:32:23;;;;;;;13.23;3.65;;;;;;;10.20;100.00;100743.47;5112928;28;20027;-72
2022/11/07 04:34:49;;;;;;;16.08;3.63;;;;;;;10.19;100.00;100741.00;5110806;28;20034;-66
2022/11/07 04:37:15;;;;;;;5.28;2.63;;;;;;;10.07;100.00;100730.91;5093401;28;20063;-66
2022/11/07 04:39:40;;;;;;;13.13;2.78;;;;;;;10.08;100.00;100735.19;5093425;28;20504;-67
2022/11/07 04:42:05;;;;;;;6.07;3.20;;;;;;;10.07;100.00;100743.41;5093369;28;20040;-67
2022/11/07 04:44:31;;;;;;;10.38;3.45;;;;;;;10.03;100.00;100750.13;5093267;28;20024;-67
2022/11/07 04:46:56;;;;;;;11.68;3.33;;;;;;;10.01;100.00;100736.19;5093148;28;20051;-67
2022/11/07 04:49:21;;;;;;;5.65;2.47;;;;;;;10.02;100.00;100748.50;5093158;28;20892;-67
2022/11/07 04:51:47;;;;;;;12.18;3.35;;;;;;;10.01;100.00;100753.00;5092921;28;20598;-67
2022/11/07 04:54:14;;;;;;;9.05;2.63;;;;;;;10.01;100.00;100747.66;5093030;28;20040;-67
2022/11/07 04:56:40;;;;;;;9.70;2.58;;;;;;;9.99;100.00;100752.38;5093082;28;20124;-67
2022/11/07 04:59:06;;;;;;;11.48;3.33;;;;;;;9.96;100.00;100751.94;5092967;28;20476;-67
2022/11/07 05:01:31;;;;;;;6.13;2.67;;;;;;;9.95;100.00;100759.09;5092552;28;20063;-66
2022/11/07 05:03:57;;;;;;;11.90;2.97;;;;;;;9.98;100.00;100756.06;5074510;28;20066;-67
2022/11/07 05:06:23;;;;;;;9.68;2.58;;;;;;;10.00;100.00;100759.34;5092733;28;20383;-67
2022/11/07 05:08:48;;;;;;;8.55;2.47;;;;;;;10.00;100.00;100750.53;5074623;28;20437;-67
2022/11/07 05:11:14;;;;;;;13.52;2.67;;;;;;;10.05;100.00;100756.09;5092756;28;20032;-67
2022/11/07 05:13:39;;;;;;;14.93;4.53;;;;;;;10.13;100.00;100760.44;5074464;28;20028;-66
2022/11/07 05:16:05;;;;;;;12.60;3.30;;;;;;;10.13;100.00;100763.09;5092561;28;20081;-66
2022/11/07 05:18:31;;;;;;;7.40;3.70;;;;;;;10.20;100.00;100766.66;5074572;28;20085;-67
2022/11/07 05:20:56;;;;;;;12.02;3.13;;;;;;;10.24;100.00;100773.22;5092401;28;20024;-66
2022/11/07 05:23:21;;;;;;;12.05;2.35;;;;;;;10.26;100.00;100768.50;5092573;28;20104;-67
2022/11/07 05:25:51;;;;;;;11.95;3.22;;;;;;;10.26;100.00;100756.00;5092500;28;20024;-66
2022/11/07 05:28:28;;;;;;;15.38;2.92;;;;;;;10.28;100.00;100772.66;5091181;28;20039;-67
2022/11/07 05:30:57;;;;;;;11.18;3.65;;;;;;;10.29;100.00;100766.28;5091894;28;20176;-67
2022/11/07 05:33:23;;;;;;;7.55;3.20;;;;;;;10.28;100.00;100761.19;5092241;28;20490;-67
2022/11/07 05:35:48;;;;;;;7.68;3.40;;;;;;;10.35;100.00;100766.53;5092402;28;20036;-66
2022/11/07 05:38:13;;;;;;;17.23;4.75;;;;;;;10.33;100.00;100769.41;5092235;28;20035;-67
2022/11/07 05:40:40;;;;;;;14.35;3.35;;;;;;;10.35;100.00;100772.72;5092201;28;20462;-66
2022/11/07 05:43:08;;;;;;;11.25;2.90;;;;;;;10.34;100.00;100778.22;5092231;28;20391;-66
2022/11/07 05:45:37;;;;;;;8.88;2.30;;;;;;;10.31;100.00;100771.44;5091901;28;20028;-66
2022/11/07 05:48:08;;;;;;;13.32;3.28;;;;;;;10.35;100.00;100778.03;5091576;28;20060;-66
2022/11/07 05:50:34;;;;;;;8.32;2.85;;;;;;;10.38;100.00;100785.63;5091683;28;20152;-66
2022/11/07 05:53:00;;;;;;;12.88;3.30;;;;;;;10.39;100.00;100776.59;5091761;28;20032;-66
2022/11/07 05:55:26;;;;;;;15.02;4.28;;;;;;;10.42;100.00;100776.22;5091880;28;20028;-67
2022/11/07 05:57:52;;;;;;;11.85;2.70;;;;;;;10.42;100.00;100772.72;5091842;28;20047;-67
2022/11/07 06:00:17;;;;;;;6.22;2.47;;;;;;;10.36;100.00;100771.69;5091769;28;20479;-67
2022/11/07 06:02:44;;;;;;;14.05;3.25;;;;;;;10.40;100.00;100777.44;5091540;28;20036;-67
2022/11/07 06:05:10;;;;;;;10.05;3.28;;;;;;;10.38;100.00;100772.31;5091292;28;20027;-67
2022/11/07 06:07:37;;;;;;;8.63;3.38;;;;;;;10.42;100.00;100776.22;5091729;28;20542;-67
2022/11/07 06:10:07;;;;;;;9.35;3.55;;;;;;;10.42;100.00;100776.22;5073213;28;20399;-67
2022/11/07 06:12:32;;;;;;;15.38;3.15;;;;;;;10.40;100.00;100772.09;5091529;28;20059;-66
2022/11/07 06:14:58;;;;;;;11.82;3.92;;;;;;;10.36;100.00;100760.19;5091571;28;20058;-67
2022/11/07 06:17:23;;;;;;;11.65;3.85;;;;;;;10.32;100.00;100762.41;5091352;28;20024;-67
2022/11/07 06:19:48;;;;;;;11.93;3.35;;;;;;;10.36;100.00;100762.88;5091274;28;20030;-67
2022/11/07 06:22:14;;;;;;;22.48;4.40;;;;;;;10.37;100.00;100770.66;5091291;28;20097;-67
2022/11/07 06:24:39;;;;;;;16.58;5.13;;;;;;;10.39;100.00;100771.28;5091127;28;20066;-67
2022/11/07 06:27:04;;;;;;;6.97;3.25;;;;;;;10.46;100.00;100777.47;5091415;28;20032;-67
2022/11/07 06:29:30;;;;;;;10.77;3.28;;;;;;;10.47;100.00;100772.97;5090979;28;20081;-67
2022/11/07 06:31:55;;;;;;;8.38;2.50;;;;;;;10.49;100.00;100766.41;5090575;28;20016;-67
2022/11/07 06:34:20;;;;;;;12.18;5.28;;;;;;;10.51;100.00;100777.72;5090775;28;20032;-67
2022/11/07 06:36:50;;;;;;;26.00;3.50;;;;;;;10.50;100.00;100778.72;5091096;28;20027;-67
2022/11/07 06:39:16;;;;;;;11.15;3.60;;;;;;;10.54;100.00;100779.16;5090880;28;20054;-67
2022/11/07 06:41:41;;;;;;;8.95;2.58;;;;;;;10.56;100.00;100781.59;5090944;28;20621;-66
2022/11/07 06:44:06;;;;;;;9.73;3.10;;;;;;;10.55;100.00;100788.78;5090847;28;20491;-67
2022/11/07 06:46:32;;;;;;;10.43;3.45;;;;;;;10.61;100.00;100797.84;5090716;28;20040;-67
2022/11/07 06:48:57;;;;;;;10.63;2.95;;;;;;;10.64;100.00;100803.63;5090730;28;20036;-66
2022/11/07 06:51:22;;;;;;;8.77;2.80;;;;;;;10.66;100.00;100795.41;5090345;28;20107;-67
2022/11/07 06:53:49;;;;;;;5.55;3.00;;;;;;;10.70;100.00;100796.66;5090812;28;20024;-67
2022/11/07 06:56:15;;;;;;;14.02;3.90;;;;;;;10.72;100.00;100797.28;5090670;28;20031;-66
2022/11/07 06:58:41;;;;;;;12.30;3.22;;;;;;;10.73;100.00;100801.59;5090700;28;20035;-67
2022/11/07 07:01:08;;;;;;;13.73;3.63;;;;;;;10.76;100.00;100790.53;5090514;28;20031;-66
2022/11/07 07:03:34;;;;;;;8.40;3.35;;;;;;;10.79;100.00;100797.31;5090284;28;20032;-67
2022/11/07 07:06:04;;;;;;;6.13;3.45;;;;;;;10.80;100.00;100802.44;5090138;28;20039;-67
2022/11/07 07:08:30;;;;;;;10.80;3.33;;;;;;;10.82;100.00;100804.91;5109838;28;20072;-67
2022/11/07 07:10:56;;;;;;;10.73;2.47;;;;;;;10.84;100.00;100803.69;5109851;28;20031;-67
2022/11/07 07:13:21;;;;;;;12.75;2.83;;;;;;;10.90;100.00;100810.91;5109769;28;20038;-67
2022/11/07 07:15:54;;;;;;;9.95;2.60;;;;;;;10.91;100.00;100807.22;5109829;28;20130;-67
2022/11/07 07:18:20;;;;;;;9.73;3.83;;;;;;;10.99;100.00;100813.41;5109679;28;20073;-67
2022/11/07 07:20:47;;;;;;;9.25;2.58;;;;;;;11.01;100.00;100816.69;5109752;28;20070;-67
2022/11/07 07:23:12;;;;;;;11.52;2.20;;;;;;;11.05;100.00;100820.59;5109532;28;20856;-67
2022/11/07 07:25:38;;;;;;;7.43;2.67;;;;;;;11.06;100.00;100814.25;5109701;28;20027;-67
2022/11/07 07:28:03;;;;;;;15.48;2.92;;;;;;;11.06;100.00;100811.59;5109590;28;20044;-67
2022/11/07 07:30:28;;;;;;;7.55;2.08;;;;;;;11.11;100.00;100831.31;5109551;28;20055;-67
2022/11/07 07:32:54;;;;;;;8.32;2.33;;;;;;;11.13;100.00;100833.75;5108776;28;20031;-71
2022/11/07 07:35:20;;;;;;;7.85;2.20;;;;;;;11.14;100.00;100822.88;5107561;28;20432;-67
2022/11/07 07:37:50;;;;;;;10.00;2.33;;;;;;;11.11;100.00;100823.28;5089587;28;20028;-67
2022/11/07 07:40:16;;;;;;;9.45;2.90;;;;;;;11.18;100.00;100825.97;5089592;28;20085;-68
2022/11/07 07:42:42;;;;;;;6.85;2.03;;;;;;;11.17;100.00;100830.50;5090014;28;20028;-69
2022/11/07 07:45:10;;;;;;;10.63;2.78;;;;;;;11.19;100.00;100833.78;5071910;28;20034;-67
2022/11/07 07:47:35;;;;;;;15.20;2.75;;;;;;;11.17;100.00;100827.00;5089749;28;20056;-67
2022/11/07 07:50:01;;;;;;;11.30;2.97;;;;;;;11.27;100.00;100832.78;5089404;28;20034;-66
2022/11/07 07:52:26;;;;;;;13.90;3.55;;;;;;;11.31;100.00;100833.19;5089050;28;20130;-67
2022/11/07 07:54:51;;;;;;;11.27;3.40;;;;;;;11.30;100.00;100840.38;5089785;28;20035;-66
2022/11/07 07:57:17;;;;;;;9.65;2.10;;;;;;;11.32;100.00;100834.84;5089714;28;20032;-66
2022/11/07 07:59:42;;;;;;;9.02;2.10;;;;;;;11.34;100.00;100846.97;5089764;28;20032;-67
2022/11/07 08:02:11;;;;;;;9.63;3.60;;;;;;;11.42;100.00;100843.28;5089681;28;20031;-67
2022/11/07 08:04:36;;;;;;;7.10;2.42;;;;;;;11.50;100.00;100858.28;5089647;28;20032;-66
2022/11/07 08:07:01;;;;;;;11.00;2.08;;;;;;;11.57;100.00;100851.94;5088956;28;20035;-66
2022/11/07 08:09:30;;;;;;;9.80;3.88;;;;;;;11.66;100.00;100846.41;5089002;28;20067;-66
2022/11/07 08:11:55;;;;;;;3.55;2.40;;;;;;;11.69;100.00;100843.34;5089241;28;20030;-67
2022/11/07 08:14:20;;;;;;;12.90;2.80;;;;;;;11.80;100.00;100853.41;5089138;28;20028;-66
2022/11/07 08:16:46;;;;;;;9.00;2.40;;;;;;;11.76;100.00;100841.47;5089299;28;20066;-67
2022/11/07 08:19:11;;;;;;;10.10;3.22;;;;;;;11.91;100.00;100854.69;5089095;28;20591;-66
2022/11/07 08:21:36;;;;;;;12.27;2.25;;;;;;;11.95;100.00;100856.75;5088361;28;20448;-66
2022/11/07 08:24:02;;;;;;;14.48;2.22;;;;;;;12.02;100.00;100862.06;5088781;28;20024;-66
2022/11/07 08:26:27;;;;;;;6.53;2.88;;;;;;;12.05;100.00;100858.97;5089449;28;20114;-67
2022/11/07 08:28:53;;;;;;;7.85;2.67;;;;;;;12.04;100.00;100855.50;5089089;28;20132;-66
2022/11/07 08:31:19;;;;;;;11.68;2.85;;;;;;;12.09;100.00;100865.56;5089184;28;20020;-66
2022/11/07 08:33:44;;;;;;;7.82;2.67;;;;;;;12.15;100.00;100864.75;5089216;28;20032;-65
2022/11/07 08:36:10;;;;;;;9.52;2.22;;;;;;;12.23;100.00;100877.06;5092853;28;20134;-67
2022/11/07 08:38:36;;;;;;;10.63;2.45;;;;;;;12.36;100.00;100869.03;5096291;28;20080;-66
2022/11/07 08:41:03;;;;;;;7.32;2.50;;;;;;;12.50;100.00;100872.53;5096052;28;20024;-66
2022/11/07 08:43:28;;;;;;;16.27;3.70;;;;;;;12.46;100.00;100871.28;5097290;28;20060;-67
2022/11/07 08:45:54;;;;;;;7.28;2.15;;;;;;;12.53;100.00;100882.81;5068517;28;20066;-66
2022/11/07 08:48:20;;;;;;;11.85;2.53;;;;;;;12.55;100.00;100883.44;5096983;28;20043;-68
2022/11/07 08:50:51;;;;;;;12.27;4.00;;;;;;;12.63;100.00;100885.06;5095388;28;20152;-68
2022/11/07 08:53:16;;;;;;;12.55;2.95;;;;;;;12.75;100.00;100882.56;5096701;28;20111;-67
2022/11/07 08:55:41;;;;;;;17.50;4.18;;;;;;;12.77;100.00;100884.00;5096882;28;20127;-67
2022/11/07 08:58:07;;;;;;;16.48;3.65;;;;;;;12.76;100.00;100889.53;5096755;28;20123;-67
2022/11/07 09:00:34;;;;;;;15.20;4.10;;;;;;;12.78;100.00;100896.31;5095765;28;20107;-65
2022/11/07 09:03:02;;;;;;;15.48;2.53;;;;;;;12.83;100.00;100917.13;5096365;28;20039;-67
2022/11/07 09:05:27;;;;;;;9.32;2.13;;;;;;;12.82;100.00;100907.44;5100135;28;20036;-66
2022/11/07 09:07:52;;;;;;;12.48;2.67;;;;;;;12.81;100.00;100916.50;5099529;28;20497;-67
2022/11/07 09:10:18;;;;;;;8.48;3.05;;;;;;;12.71;100.00;100919.63;5100258;28;20039;-66
2022/11/07 09:12:45;;;;;;;7.40;2.75;;;;;;;12.73;100.00;100914.88;5100448;28;20028;-66
2022/11/07 09:15:10;;;;;;;6.88;2.72;;;;;;;12.67;100.00;100924.56;5098927;28;20034;-66
2022/11/07 09:17:35;;;;;;;15.30;2.75;;;;;;;12.61;100.00;100919.22;5099552;28;20028;-68
2022/11/07 09:20:01;;;;;;;7.30;2.95;;;;;;;12.58;100.00;100915.13;5071043;28;20028;-68
2022/11/07 09:22:26;;;;;;;6.65;2.15;;;;;;;12.60;100.00;100917.56;5070059;28;20071;-68
2022/11/07 09:24:51;;;;;;;10.85;2.85;;;;;;;12.57;100.00;100924.16;5099311;28;20028;-67
2022/11/07 09:27:17;;;;;;;8.18;2.90;;;;;;;12.56;100.00;100930.56;5099353;28;20027;-67
2022/11/07 09:29:42;;;;;;;9.77;3.63;;;;;;;12.55;100.00;100936.94;5099717;28;20274;-68
2022/11/07 09:32:07;;;;;;;6.63;2.00;;;;;;;12.49;100.00;100930.53;5100106;28;20060;-67
2022/11/07 09:34:33;;;;;;;8.43;2.03;;;;;;;12.54;100.00;100929.13;5071668;28;20034;-67
2022/11/07 09:36:58;;;;;;;6.88;1.88;;;;;;;12.53;100.00;100939.00;5098737;28;20023;-70
2022/11/07 09:39:23;;;;;;;8.38;2.20;;;;;;;12.57;100.00;100939.41;5070847;28;20055;-67
2022/11/07 09:41:59;;;;;;;7.35;2.75;;;;;;;12.61;100.00;100937.97;5099599;28;20111;-67
2022/11/07 09:44:49;;;;;;;8.02;2.45;;;;;;;12.68;100.00;100934.25;5099389;28;20020;-67
2022/11/07 09:47:22;;;;;;;7.63;3.15;;;;;;;12.62;100.00;100923.53;5099163;28;20044;-67
2022/11/07 09:49:55;;;;;;;7.90;2.33;;;;;;;12.68;100.00;100939.59;5098849;28;20547;-66
2022/11/07 09:52:30;;;;;;;14.10;3.03;;;;;;;12.71;100.00;100941.03;5099271;28;20040;-67
2022/11/07 09:55:06;;;;;;;7.85;2.72;;;;;;;12.72;100.00;100940.00;5098681;28;20015;-68
2022/11/07 09:57:34;;;;;;;7.20;3.03;;;;;;;12.80;100.00;100946.97;5099788;28;20055;-68
2022/11/07 10:00:10;;;;;;;15.93;3.20;;;;;;;12.86;100.00;100948.81;5070888;28;20355;-68
2022/11/07 10:02:41;;;;;;;7.63;2.25;;;;;;;12.91;100.00;100947.16;5098724;28;20110;-68
2022/11/07 10:05:13;;;;;;;10.65;2.30;;;;;;;12.97;100.00;100956.22;5097697;28;20044;-68
2022/11/07 10:08:06;;;;;;;11.32;3.10;;;;;;;13.03;100.00;100952.69;5098635;28;20027;-67
2022/11/07 10:10:37;;;;;;;9.70;2.92;;;;;;;12.97;100.00;100953.53;5098675;28;20026;-68
2022/11/07 10:13:26;;;;;;;11.80;2.88;;;;;;;12.98;100.00;100957.84;5069577;28;20171;-68
2022/11/07 10:16:01;;;;;;;11.95;3.10;;;;;;;12.97;100.00;100952.69;5097008;28;20034;-68
2022/11/07 10:18:47;;;;;;;10.05;3.15;;;;;;;12.97;100.00;100950.03;5099027;28;20039;-68
2022/11/07 10:21:35;;;;;;;10.73;2.80;;;;;;;12.97;100.00;100948.19;5098789;28;20035;-68
2022/11/07 10:24:03;;;;;;;13.05;2.85;;;;;;;12.96;100.00;100965.25;5091005;28;20027;-67
2022/11/07 10:26:30;;;;;;;15.25;2.13;;;;;;;12.91;100.00;100971.25;5090726;28;20148;-67
2022/11/07 10:28:59;;;;;;;10.15;1.92;;;;;;;12.92;100.00;100962.19;5091257;28;20059;-67
2022/11/07 10:31:31;;;;;;;5.80;2.40;;;;;;;12.92;100.00;100958.69;5091363;28;20027;-67
2022/11/07 10:34:05;;;;;;;12.68;3.42;;;;;;;13.03;100.00;100966.09;5091245;28;20107;-67
2022/11/07 10:36:32;;;;;;;10.88;2.22;;;;;;;13.08;100.00;100971.63;5090569;28;20115;-67
2022/11/07 10:39:00;;;;;;;10.93;2.28;;;;;;;13.13;100.00;100968.34;5090675;28;20069;-67
2022/11/07 10:41:28;;;;;;;7.15;2.40;;;;;;;13.12;100.00;100967.47;5090946;28;20032;-67
2022/11/07 10:44:01;;;;;;;7.15;2.08;;;;;;;13.12;100.00;100966.66;5090878;28;20356;-67
2022/11/07 10:46:41;;;;;;;10.80;2.60;;;;;;;13.18;100.00;100967.69;5090752;28;20058;-67
2022/11/07 10:49:23;;;;;;;9.75;2.95;;;;;;;13.23;100.00;100976.75;5096013;28;20069;-68
2022/11/07 10:51:50;;;;;;;4.57;1.80;;;;;;;13.29;99.97;100980.47;5097122;28;20032;-67
2022/11/07 10:54:24;;;;;;;9.43;2.95;;;;;;;13.34;98.47;100980.66;5098363;28;20023;-66
2022/11/07 10:57:28;;;;;;;9.82;2.90;;;;;;;13.40;98.99;100981.66;5096977;28;20031;-66
2022/11/07 10:59:56;;;;;;;10.35;2.78;;;;;;;13.45;97.53;100969.28;5003975;28;20034;-67
2022/11/07 11:02:30;;;;;;;9.10;3.80;;;;;;;13.52;97.92;100972.75;5081139;28;20395;-68
2022/11/07 11:05:04;;;;;;;12.73;2.40;;;;;;;13.59;96.55;100981.56;5100346;28;20050;-67
2022/11/07 11:07:37;;;;;;;10.93;2.55;;;;;;;13.67;96.76;100975.13;5103221;28;20386;-68
2022/11/07 11:10:18;;;;;;;13.60;3.08;;;;;;;13.72;96.34;100983.34;5109899;28;20056;-68
2022/11/07 11:12:46;;;;;;;6.80;2.58;;;;;;;13.64;96.24;100967.53;5109956;28;20506;-68
2022/11/07 11:15:14;;;;;;;9.75;2.42;;;;;;;13.71;96.22;100981.72;5109649;28;20030;-68
2022/11/07 11:17:39;;;;;;;11.20;2.85;;;;;;;13.67;95.71;100977.00;5109543;28;20032;-68
2022/11/07 11:20:18;;;;;;;10.63;2.65;;;;;;;13.63;96.09;100965.06;5109665;28;20027;-68
2022/11/07 11:22:44;;;;;;;10.38;2.58;;;;;;;13.65;95.55;100971.88;5090891;28;20047;-68
2022/11/07 11:25:09;;;;;;;10.13;3.08;;;;;;;13.69;95.63;100964.22;5109643;28;20069;-68
2022/11/07 11:27:36;;;;;;;8.82;1.85;;;;;;;13.79;94.67;100967.25;5108449;28;20039;-68
2022/11/07 11:30:07;;;;;;;10.98;2.58;;;;;;;13.90;94.26;100968.41;5109566;28;20031;-68